sensor_id;sensor_type;location;lat;lon;timestamp;P1;durP1;ratioP1;P2;durP2;ratioP2
26936;SDS011;14495;48.116;11.676;2023-09-12T00:01:05;16.42;;;14.35;;
26936;SDS011;14495;48.116;11.676;2023-09-12T00:03:32;21.30;;;13.77;;
26936;SDS011;14495;48.116;11.676;2023-09-12T00:06:02;16.65;;;13.75;;
26936;SDS011;14495;48.116;11.676;2023-09-12T00:08:29;18.58;;;13.35;;
26936;SDS011;14495;48.116;11.676;2023-09-12T00:11:07;20.52;;;13.57;;
26936;SDS011;14495;48.116;11.676;2023-09-12T00:13:40;17.98;;;13.48;;
26936;SDS011;14495;48.116;11.676;2023-09-12T00:16:06;20.45;;;14.20;;
26936;SDS011;14495;48.116;11.676;2023-09-12T00:18:32;19.83;;;13.60;;
26936;SDS011;14495;48.116;11.676;2023-09-12T00:20:59;13.88;;;12.40;;
26936;SDS011;14495;48.116;11.676;2023-09-12T00:23:25;18.27;;;13.80;;
26936;SDS011;14495;48.116;11.676;2023-09-12T00:25:51;17.63;;;13.30;;
26936;SDS011;14495;48.116;11.676;2023-09-12T00:28:17;15.65;;;12.90;;
26936;SDS011;14495;48.116;11.676;2023-09-12T00:30:43;16.27;;;12.43;;
26936;SDS011;14495;48.116;11.676;2023-09-12T00:33:08;13.63;;;11.73;;
26936;SDS011;14495;48.116;11.676;2023-09-12T00:35:33;20.35;;;12.05;;
26936;SDS011;14495;48.116;11.676;2023-09-12T00:38:00;18.17;;;13.10;;
26936;SDS011;14495;48.116;11.676;2023-09-12T00:40:25;20.38;;;12.30;;
26936;SDS011;14495;48.116;11.676;2023-09-12T00:42:51;15.30;;;12.90;;
26936;SDS011;14495;48.116;11.676;2023-09-12T00:45:16;18.90;;;12.52;;
26936;SDS011;14495;48.116;11.676;2023-09-12T00:47:42;15.10;;;11.70;;
26936;SDS011;14495;48.116;11.676;2023-09-12T00:50:07;17.13;;;13.27;;
26936;SDS011;14495;48.116;11.676;2023-09-12T00:52:34;17.45;;;13.27;;
26936;SDS011;14495;48.116;11.676;2023-09-12T00:55:01;16.85;;;13.20;;
26936;SDS011;14495;48.116;11.676;2023-09-12T00:57:27;22.63;;;13.57;;
26936;SDS011;14495;48.116;11.676;2023-09-12T00:59:54;16.20;;;13.20;;
26936;SDS011;14495;48.116;11.676;2023-09-12T01:02:21;15.18;;;12.85;;
26936;SDS011;14495;48.116;11.676;2023-09-12T01:04:49;17.00;;;12.60;;
26936;SDS011;14495;48.116;11.676;2023-09-12T01:07:16;15.30;;;12.75;;
26936;SDS011;14495;48.116;11.676;2023-09-12T01:09:41;18.05;;;12.35;;
26936;SDS011;14495;48.116;11.676;2023-09-12T01:12:07;15.07;;;12.98;;
26936;SDS011;14495;48.116;11.676;2023-09-12T01:14:33;15.02;;;12.73;;
26936;SDS011;14495;48.116;11.676;2023-09-12T01:16:58;15.23;;;13.02;;
26936;SDS011;14495;48.116;11.676;2023-09-12T01:19:26;15.88;;;12.70;;
26936;SDS011;14495;48.116;11.676;2023-09-12T01:29:53;15.30;;;13.20;;
26936;SDS011;14495;48.116;11.676;2023-09-12T01:32:22;14.77;;;12.25;;
26936;SDS011;14495;48.116;11.676;2023-09-12T01:34:47;14.30;;;12.73;;
26936;SDS011;14495;48.116;11.676;2023-09-12T01:37:13;14.73;;;12.18;;
26936;SDS011;14495;48.116;11.676;2023-09-12T01:39:39;16.08;;;12.48;;
26936;SDS011;14495;48.116;11.676;2023-09-12T01:42:05;16.65;;;12.82;;
26936;SDS011;14495;48.116;11.676;2023-09-12T01:44:32;16.35;;;12.85;;
26936;SDS011;14495;48.116;11.676;2023-09-12T01:47:03;14.70;;;12.43;;
26936;SDS011;14495;48.116;11.676;2023-09-12T01:49:30;16.83;;;12.23;;
26936;SDS011;14495;48.116;11.676;2023-09-12T01:51:57;15.07;;;12.50;;
26936;SDS011;14495;48.116;11.676;2023-09-12T01:54:24;14.77;;;12.55;;
26936;SDS011;14495;48.116;11.676;2023-09-12T01:56:51;15.38;;;12.80;;
26936;SDS011;14495;48.116;11.676;2023-09-12T01:59:19;17.65;;;11.48;;
26936;SDS011;14495;48.116;11.676;2023-09-12T02:01:44;14.95;;;11.82;;
26936;SDS011;14495;48.116;11.676;2023-09-12T02:04:10;16.25;;;12.07;;
26936;SDS011;14495;48.116;11.676;2023-09-12T02:06:37;14.23;;;11.73;;
26936;SDS011;14495;48.116;11.676;2023-09-12T02:09:03;15.02;;;11.25;;
26936;SDS011;14495;48.116;11.676;2023-09-12T02:11:28;13.68;;;12.13;;
26936;SDS011;14495;48.116;11.676;2023-09-12T02:13:55;14.90;;;12.38;;
26936;SDS011;14495;48.116;11.676;2023-09-12T02:16:20;15.95;;;12.50;;
26936;SDS011;14495;48.116;11.676;2023-09-12T02:18:46;15.13;;;11.82;;
26936;SDS011;14495;48.116;11.676;2023-09-12T02:21:11;16.60;;;12.20;;
26936;SDS011;14495;48.116;11.676;2023-09-12T02:23:37;18.45;;;11.70;;
26936;SDS011;14495;48.116;11.676;2023-09-12T02:26:02;15.50;;;11.65;;
26936;SDS011;14495;48.116;11.676;2023-09-12T02:28:27;17.35;;;12.00;;
26936;SDS011;14495;48.116;11.676;2023-09-12T02:30:53;14.18;;;11.55;;
26936;SDS011;14495;48.116;11.676;2023-09-12T02:33:18;18.20;;;12.88;;
26936;SDS011;14495;48.116;11.676;2023-09-12T02:35:46;14.48;;;10.73;;
26936;SDS011;14495;48.116;11.676;2023-09-12T02:38:11;14.43;;;11.18;;
26936;SDS011;14495;48.116;11.676;2023-09-12T02:40:36;19.88;;;11.15;;
26936;SDS011;14495;48.116;11.676;2023-09-12T02:43:02;16.77;;;11.93;;
26936;SDS011;14495;48.116;11.676;2023-09-12T02:45:30;15.65;;;10.82;;
26936;SDS011;14495;48.116;11.676;2023-09-12T02:47:55;16.95;;;12.00;;
26936;SDS011;14495;48.116;11.676;2023-09-12T02:50:21;14.02;;;11.60;;
26936;SDS011;14495;48.116;11.676;2023-09-12T02:52:46;16.77;;;11.80;;
26936;SDS011;14495;48.116;11.676;2023-09-12T02:55:11;16.92;;;12.60;;
26936;SDS011;14495;48.116;11.676;2023-09-12T02:57:37;14.95;;;12.25;;
26936;SDS011;14495;48.116;11.676;2023-09-12T03:00:02;16.08;;;11.50;;
26936;SDS011;14495;48.116;11.676;2023-09-12T03:02:31;15.38;;;12.00;;
26936;SDS011;14495;48.116;11.676;2023-09-12T03:04:56;17.52;;;11.57;;
26936;SDS011;14495;48.116;11.676;2023-09-12T03:07:22;15.80;;;11.85;;
26936;SDS011;14495;48.116;11.676;2023-09-12T03:09:50;16.48;;;11.52;;
26936;SDS011;14495;48.116;11.676;2023-09-12T03:12:16;14.35;;;11.90;;
26936;SDS011;14495;48.116;11.676;2023-09-12T03:14:41;16.17;;;11.38;;
26936;SDS011;14495;48.116;11.676;2023-09-12T03:17:06;16.50;;;11.70;;
26936;SDS011;14495;48.116;11.676;2023-09-12T03:19:32;15.60;;;12.40;;
26936;SDS011;14495;48.116;11.676;2023-09-12T03:21:57;15.30;;;11.45;;
26936;SDS011;14495;48.116;11.676;2023-09-12T03:24:22;14.80;;;11.23;;
26936;SDS011;14495;48.116;11.676;2023-09-12T03:26:50;16.00;;;12.05;;
26936;SDS011;14495;48.116;11.676;2023-09-12T03:29:16;14.13;;;10.60;;
26936;SDS011;14495;48.116;11.676;2023-09-12T03:31:41;14.38;;;12.07;;
26936;SDS011;14495;48.116;11.676;2023-09-12T03:34:07;15.38;;;11.80;;
26936;SDS011;14495;48.116;11.676;2023-09-12T03:36:32;15.38;;;12.02;;
26936;SDS011;14495;48.116;11.676;2023-09-12T03:38:57;16.33;;;12.07;;
26936;SDS011;14495;48.116;11.676;2023-09-12T03:41:23;15.02;;;12.18;;
26936;SDS011;14495;48.116;11.676;2023-09-12T03:43:54;15.68;;;12.13;;
26936;SDS011;14495;48.116;11.676;2023-09-12T03:46:21;16.88;;;12.73;;
26936;SDS011;14495;48.116;11.676;2023-09-12T03:48:46;13.57;;;12.07;;
26936;SDS011;14495;48.116;11.676;2023-09-12T03:51:12;14.30;;;12.38;;
26936;SDS011;14495;48.116;11.676;2023-09-12T03:53:38;17.83;;;12.77;;
26936;SDS011;14495;48.116;11.676;2023-09-12T03:56:03;14.35;;;12.77;;
26936;SDS011;14495;48.116;11.676;2023-09-12T03:58:28;17.98;;;12.88;;
26936;SDS011;14495;48.116;11.676;2023-09-12T04:00:54;17.23;;;11.90;;
26936;SDS011;14495;48.116;11.676;2023-09-12T04:03:19;14.02;;;12.50;;
26936;SDS011;14495;48.116;11.676;2023-09-12T04:05:50;17.60;;;12.55;;
26936;SDS011;14495;48.116;11.676;2023-09-12T04:08:16;16.60;;;12.57;;
26936;SDS011;14495;48.116;11.676;2023-09-12T04:10:42;15.95;;;12.35;;
26936;SDS011;14495;48.116;11.676;2023-09-12T04:13:10;15.15;;;11.43;;
26936;SDS011;14495;48.116;11.676;2023-09-12T04:15:35;16.98;;;12.57;;
26936;SDS011;14495;48.116;11.676;2023-09-12T04:18:00;17.73;;;12.95;;
26936;SDS011;14495;48.116;11.676;2023-09-12T04:20:26;20.33;;;12.75;;
26936;SDS011;14495;48.116;11.676;2023-09-12T04:22:51;14.43;;;11.43;;
26936;SDS011;14495;48.116;11.676;2023-09-12T04:25:16;15.15;;;12.30;;
26936;SDS011;14495;48.116;11.676;2023-09-12T04:27:44;20.60;;;12.68;;
26936;SDS011;14495;48.116;11.676;2023-09-12T04:30:10;16.83;;;12.10;;
26936;SDS011;14495;48.116;11.676;2023-09-12T04:32:36;16.45;;;12.82;;
26936;SDS011;14495;48.116;11.676;2023-09-12T04:35:01;18.45;;;12.73;;
26936;SDS011;14495;48.116;11.676;2023-09-12T04:37:28;14.30;;;12.32;;
26936;SDS011;14495;48.116;11.676;2023-09-12T04:39:54;14.57;;;11.73;;
26936;SDS011;14495;48.116;11.676;2023-09-12T04:42:19;13.90;;;11.65;;
26936;SDS011;14495;48.116;11.676;2023-09-12T04:44:48;15.93;;;12.02;;
26936;SDS011;14495;48.116;11.676;2023-09-12T04:47:13;14.07;;;11.77;;
26936;SDS011;14495;48.116;11.676;2023-09-12T04:49:41;21.02;;;13.07;;
26936;SDS011;14495;48.116;11.676;2023-09-12T04:52:08;17.13;;;12.75;;
26936;SDS011;14495;48.116;11.676;2023-09-12T04:54:33;16.75;;;12.73;;
26936;SDS011;14495;48.116;11.676;2023-09-12T04:56:59;14.77;;;12.52;;
26936;SDS011;14495;48.116;11.676;2023-09-12T04:59:24;14.32;;;11.52;;
26936;SDS011;14495;48.116;11.676;2023-09-12T05:01:49;15.27;;;11.63;;
26936;SDS011;14495;48.116;11.676;2023-09-12T05:04:16;17.65;;;11.50;;
26936;SDS011;14495;48.116;11.676;2023-09-12T05:06:41;18.27;;;11.88;;
26936;SDS011;14495;48.116;11.676;2023-09-12T05:09:07;15.90;;;12.73;;
26936;SDS011;14495;48.116;11.676;2023-09-12T05:11:34;17.65;;;11.90;;
26936;SDS011;14495;48.116;11.676;2023-09-12T05:14:02;16.05;;;12.30;;
26936;SDS011;14495;48.116;11.676;2023-09-12T05:16:30;15.02;;;11.32;;
26936;SDS011;14495;48.116;11.676;2023-09-12T05:18:56;19.30;;;11.70;;
26936;SDS011;14495;48.116;11.676;2023-09-12T05:21:23;14.85;;;11.68;;
26936;SDS011;14495;48.116;11.676;2023-09-12T05:23:51;14.85;;;11.82;;
26936;SDS011;14495;48.116;11.676;2023-09-12T05:26:16;15.88;;;11.93;;
26936;SDS011;14495;48.116;11.676;2023-09-12T05:28:42;15.52;;;12.68;;
26936;SDS011;14495;48.116;11.676;2023-09-12T05:31:07;16.27;;;12.23;;
26936;SDS011;14495;48.116;11.676;2023-09-12T05:33:35;16.95;;;11.95;;
26936;SDS011;14495;48.116;11.676;2023-09-12T05:36:00;16.65;;;11.23;;
26936;SDS011;14495;48.116;11.676;2023-09-12T05:38:26;15.43;;;11.88;;
26936;SDS011;14495;48.116;11.676;2023-09-12T05:40:51;14.43;;;11.63;;
26936;SDS011;14495;48.116;11.676;2023-09-12T05:43:17;13.65;;;11.57;;
26936;SDS011;14495;48.116;11.676;2023-09-12T05:45:42;16.92;;;11.27;;
26936;SDS011;14495;48.116;11.676;2023-09-12T05:48:08;14.45;;;11.10;;
26936;SDS011;14495;48.116;11.676;2023-09-12T05:50:34;17.10;;;11.18;;
26936;SDS011;14495;48.116;11.676;2023-09-12T05:53:01;17.60;;;11.73;;
26936;SDS011;14495;48.116;11.676;2023-09-12T05:55:27;16.17;;;10.55;;
26936;SDS011;14495;48.116;11.676;2023-09-12T05:57:52;14.45;;;11.32;;
26936;SDS011;14495;48.116;11.676;2023-09-12T06:00:18;16.90;;;10.60;;
26936;SDS011;14495;48.116;11.676;2023-09-12T06:02:43;17.13;;;10.52;;
26936;SDS011;14495;48.116;11.676;2023-09-12T06:05:09;16.40;;;10.80;;
26936;SDS011;14495;48.116;11.676;2023-09-12T06:07:34;15.65;;;10.38;;
26936;SDS011;14495;48.116;11.676;2023-09-12T06:10:00;17.60;;;8.75;;
26936;SDS011;14495;48.116;11.676;2023-09-12T06:12:26;17.98;;;8.25;;
26936;SDS011;14495;48.116;11.676;2023-09-12T06:14:51;12.05;;;7.47;;
26936;SDS011;14495;48.116;11.676;2023-09-12T06:17:18;23.10;;;8.00;;
26936;SDS011;14495;48.116;11.676;2023-09-12T06:19:46;21.85;;;7.60;;
26936;SDS011;14495;48.116;11.676;2023-09-12T06:22:14;22.67;;;8.17;;
26936;SDS011;14495;48.116;11.676;2023-09-12T06:24:40;18.80;;;8.13;;
26936;SDS011;14495;48.116;11.676;2023-09-12T06:27:05;23.40;;;7.93;;
26936;SDS011;14495;48.116;11.676;2023-09-12T06:29:31;22.20;;;7.30;;
26936;SDS011;14495;48.116;11.676;2023-09-12T06:31:56;22.00;;;8.18;;
26936;SDS011;14495;48.116;11.676;2023-09-12T06:34:24;23.77;;;8.45;;
26936;SDS011;14495;48.116;11.676;2023-09-12T06:36:49;17.58;;;7.47;;
26936;SDS011;14495;48.116;11.676;2023-09-12T06:39:14;13.77;;;7.97;;
26936;SDS011;14495;48.116;11.676;2023-09-12T06:41:40;13.30;;;7.40;;
26936;SDS011;14495;48.116;11.676;2023-09-12T06:44:08;13.32;;;7.88;;
26936;SDS011;14495;48.116;11.676;2023-09-12T06:46:34;9.43;;;7.28;;
26936;SDS011;14495;48.116;11.676;2023-09-12T06:49:02;16.13;;;8.43;;
26936;SDS011;14495;48.116;11.676;2023-09-12T06:51:28;15.40;;;7.80;;
26936;SDS011;14495;48.116;11.676;2023-09-12T06:53:54;13.68;;;8.40;;
26936;SDS011;14495;48.116;11.676;2023-09-12T06:56:20;17.67;;;8.75;;
26936;SDS011;14495;48.116;11.676;2023-09-12T06:58:46;13.80;;;8.25;;
26936;SDS011;14495;48.116;11.676;2023-09-12T07:01:14;9.85;;;8.07;;
26936;SDS011;14495;48.116;11.676;2023-09-12T07:03:39;14.98;;;8.50;;
26936;SDS011;14495;48.116;11.676;2023-09-12T07:06:04;12.52;;;8.93;;
26936;SDS011;14495;48.116;11.676;2023-09-12T07:08:30;10.98;;;8.60;;
26936;SDS011;14495;48.116;11.676;2023-09-12T07:10:56;12.75;;;8.10;;
26936;SDS011;14495;48.116;11.676;2023-09-12T07:13:30;13.70;;;8.27;;
26936;SDS011;14495;48.116;11.676;2023-09-12T07:15:56;15.38;;;8.65;;
26936;SDS011;14495;48.116;11.676;2023-09-12T07:18:22;14.05;;;7.80;;
26936;SDS011;14495;48.116;11.676;2023-09-12T07:20:56;9.73;;;7.15;;
26936;SDS011;14495;48.116;11.676;2023-09-12T07:23:25;13.52;;;8.07;;
26936;SDS011;14495;48.116;11.676;2023-09-12T07:25:51;14.63;;;7.50;;
26936;SDS011;14495;48.116;11.676;2023-09-12T07:28:18;10.40;;;7.65;;
26936;SDS011;14495;48.116;11.676;2023-09-12T07:30:47;14.63;;;7.75;;
26936;SDS011;14495;48.116;11.676;2023-09-12T07:33:13;11.68;;;7.43;;
26936;SDS011;14495;48.116;11.676;2023-09-12T07:35:38;12.50;;;7.85;;
26936;SDS011;14495;48.116;11.676;2023-09-12T07:38:04;14.20;;;7.93;;
26936;SDS011;14495;48.116;11.676;2023-09-12T07:40:29;15.45;;;8.20;;
26936;SDS011;14495;48.116;11.676;2023-09-12T07:42:55;12.40;;;8.38;;
26936;SDS011;14495;48.116;11.676;2023-09-12T07:45:20;10.52;;;7.72;;
26936;SDS011;14495;48.116;11.676;2023-09-12T07:47:48;10.63;;;8.35;;
26936;SDS011;14495;48.116;11.676;2023-09-12T07:50:13;10.73;;;7.80;;
26936;SDS011;14495;48.116;11.676;2023-09-12T07:52:39;11.32;;;7.75;;
26936;SDS011;14495;48.116;11.676;2023-09-12T07:55:04;10.35;;;7.90;;
26936;SDS011;14495;48.116;11.676;2023-09-12T07:57:32;13.18;;;8.50;;
26936;SDS011;14495;48.116;11.676;2023-09-12T07:59:58;10.40;;;8.10;;
26936;SDS011;14495;48.116;11.676;2023-09-12T08:02:23;9.20;;;8.27;;
26936;SDS011;14495;48.116;11.676;2023-09-12T08:04:49;9.00;;;7.45;;
26936;SDS011;14495;48.116;11.676;2023-09-12T08:07:21;10.60;;;7.80;;
26936;SDS011;14495;48.116;11.676;2023-09-12T08:12:17;11.55;;;7.93;;
26936;SDS011;14495;48.116;11.676;2023-09-12T08:14:43;8.35;;;6.88;;
26936;SDS011;14495;48.116;11.676;2023-09-12T08:17:10;10.43;;;8.30;;
26936;SDS011;14495;48.116;11.676;2023-09-12T08:19:36;14.98;;;7.65;;
26936;SDS011;14495;48.116;11.676;2023-09-12T08:22:01;8.48;;;7.57;;
26936;SDS011;14495;48.116;11.676;2023-09-12T08:24:26;12.82;;;8.65;;
26936;SDS011;14495;48.116;11.676;2023-09-12T08:26:52;11.20;;;7.45;;
26936;SDS011;14495;48.116;11.676;2023-09-12T08:29:18;10.77;;;8.13;;
26936;SDS011;14495;48.116;11.676;2023-09-12T08:31:43;13.40;;;8.00;;
26936;SDS011;14495;48.116;11.676;2023-09-12T08:34:11;9.60;;;7.93;;
26936;SDS011;14495;48.116;11.676;2023-09-12T08:36:39;14.55;;;7.82;;
26936;SDS011;14495;48.116;11.676;2023-09-12T08:39:04;11.15;;;8.27;;
26936;SDS011;14495;48.116;11.676;2023-09-12T08:41:33;10.32;;;7.47;;
26936;SDS011;14495;48.116;11.676;2023-09-12T08:44:00;14.55;;;7.35;;
26936;SDS011;14495;48.116;11.676;2023-09-12T08:46:30;11.88;;;8.07;;
26936;SDS011;14495;48.116;11.676;2023-09-12T08:48:56;11.77;;;7.55;;
26936;SDS011;14495;48.116;11.676;2023-09-12T08:51:25;9.52;;;7.43;;
26936;SDS011;14495;48.116;11.676;2023-09-12T08:53:51;13.50;;;8.57;;
26936;SDS011;14495;48.116;11.676;2023-09-12T08:56:20;8.45;;;7.50;;
26936;SDS011;14495;48.116;11.676;2023-09-12T08:58:49;11.95;;;7.55;;
26936;SDS011;14495;48.116;11.676;2023-09-12T09:01:16;8.52;;;7.63;;
26936;SDS011;14495;48.116;11.676;2023-09-12T09:03:44;9.13;;;7.88;;
26936;SDS011;14495;48.116;11.676;2023-09-12T09:06:10;8.80;;;7.53;;
26936;SDS011;14495;48.116;11.676;2023-09-12T09:08:36;10.85;;;7.93;;
26936;SDS011;14495;48.116;11.676;2023-09-12T09:11:03;11.15;;;7.32;;
26936;SDS011;14495;48.116;11.676;2023-09-12T09:13:28;9.30;;;7.57;;
26936;SDS011;14495;48.116;11.676;2023-09-12T09:18:50;10.48;;;7.78;;
26936;SDS011;14495;48.116;11.676;2023-09-12T09:21:22;9.57;;;7.80;;
26936;SDS011;14495;48.116;11.676;2023-09-12T09:23:53;10.30;;;7.82;;
26936;SDS011;14495;48.116;11.676;2023-09-12T09:26:19;10.55;;;7.00;;
26936;SDS011;14495;48.116;11.676;2023-09-12T09:28:45;11.15;;;7.38;;
26936;SDS011;14495;48.116;11.676;2023-09-12T09:31:25;12.93;;;7.57;;
26936;SDS011;14495;48.116;11.676;2023-09-12T09:33:53;8.95;;;7.00;;
26936;SDS011;14495;48.116;11.676;2023-09-12T09:36:18;9.43;;;7.22;;
26936;SDS011;14495;48.116;11.676;2023-09-12T09:38:45;9.65;;;6.70;;
26936;SDS011;14495;48.116;11.676;2023-09-12T09:41:11;10.68;;;7.22;;
26936;SDS011;14495;48.116;11.676;2023-09-12T09:43:36;10.13;;;7.20;;
26936;SDS011;14495;48.116;11.676;2023-09-12T09:46:02;11.25;;;7.07;;
26936;SDS011;14495;48.116;11.676;2023-09-12T09:48:30;8.60;;;7.07;;
26936;SDS011;14495;48.116;11.676;2023-09-12T09:51:01;10.50;;;6.85;;
26936;SDS011;14495;48.116;11.676;2023-09-12T09:53:28;17.67;;;7.53;;
26936;SDS011;14495;48.116;11.676;2023-09-12T09:56:07;8.35;;;6.55;;
26936;SDS011;14495;48.116;11.676;2023-09-12T09:58:35;11.80;;;7.03;;
26936;SDS011;14495;48.116;11.676;2023-09-12T10:01:01;8.60;;;7.07;;
26936;SDS011;14495;48.116;11.676;2023-09-12T10:03:28;9.95;;;7.32;;
26936;SDS011;14495;48.116;11.676;2023-09-12T10:05:58;9.90;;;7.07;;
26936;SDS011;14495;48.116;11.676;2023-09-12T10:08:29;12.45;;;7.00;;
26936;SDS011;14495;48.116;11.676;2023-09-12T10:10:58;13.20;;;6.90;;
26936;SDS011;14495;48.116;11.676;2023-09-12T10:13:24;12.23;;;6.93;;
26936;SDS011;14495;48.116;11.676;2023-09-12T10:15:56;8.85;;;7.07;;
26936;SDS011;14495;48.116;11.676;2023-09-12T10:18:25;9.50;;;6.88;;
26936;SDS011;14495;48.116;11.676;2023-09-12T10:21:15;11.30;;;7.18;;
26936;SDS011;14495;48.116;11.676;2023-09-12T10:23:44;12.15;;;6.70;;
26936;SDS011;14495;48.116;11.676;2023-09-12T10:26:10;10.20;;;6.35;;
26936;SDS011;14495;48.116;11.676;2023-09-12T10:28:40;8.63;;;6.60;;
26936;SDS011;14495;48.116;11.676;2023-09-12T10:31:07;13.45;;;7.10;;
26936;SDS011;14495;48.116;11.676;2023-09-12T10:33:34;10.77;;;6.78;;
26936;SDS011;14495;48.116;11.676;2023-09-12T10:36:05;7.07;;;6.38;;
26936;SDS011;14495;48.116;11.676;2023-09-12T10:38:33;11.13;;;6.95;;
26936;SDS011;14495;48.116;11.676;2023-09-12T10:43:30;10.00;;;6.32;;
26936;SDS011;14495;48.116;11.676;2023-09-12T10:46:00;10.77;;;6.75;;
26936;SDS011;14495;48.116;11.676;2023-09-12T10:48:28;9.77;;;6.72;;
26936;SDS011;14495;48.116;11.676;2023-09-12T10:50:56;7.60;;;6.40;;
26936;SDS011;14495;48.116;11.676;2023-09-12T10:53:23;11.30;;;6.80;;
26936;SDS011;14495;48.116;11.676;2023-09-12T10:55:58;10.10;;;6.15;;
26936;SDS011;14495;48.116;11.676;2023-09-12T10:58:25;10.00;;;7.15;;
26936;SDS011;14495;48.116;11.676;2023-09-12T11:03:47;8.00;;;6.68;;
26936;SDS011;14495;48.116;11.676;2023-09-12T11:06:22;11.35;;;6.93;;
26936;SDS011;14495;48.116;11.676;2023-09-12T11:11:48;7.35;;;6.40;;
26936;SDS011;14495;48.116;11.676;2023-09-12T11:14:19;13.38;;;6.90;;
26936;SDS011;14495;48.116;11.676;2023-09-12T11:19:45;7.00;;;6.05;;
26936;SDS011;14495;48.116;11.676;2023-09-12T11:22:29;8.95;;;6.43;;
26936;SDS011;14495;48.116;11.676;2023-09-12T11:24:56;9.57;;;6.97;;
26936;SDS011;14495;48.116;11.676;2023-09-12T11:27:30;9.57;;;6.18;;
26936;SDS011;14495;48.116;11.676;2023-09-12T11:30:26;8.20;;;6.05;;
26936;SDS011;14495;48.116;11.676;2023-09-12T11:32:56;9.82;;;6.18;;
26936;SDS011;14495;48.116;11.676;2023-09-12T11:35:26;8.13;;;5.85;;
26936;SDS011;14495;48.116;11.676;2023-09-12T11:37:53;8.07;;;6.13;;
26936;SDS011;14495;48.116;11.676;2023-09-12T11:42:48;10.10;;;5.97;;
26936;SDS011;14495;48.116;11.676;2023-09-12T11:45:18;8.32;;;6.50;;
26936;SDS011;14495;48.116;11.676;2023-09-12T11:47:45;8.95;;;6.13;;
26936;SDS011;14495;48.116;11.676;2023-09-12T11:52:59;10.20;;;6.18;;
26936;SDS011;14495;48.116;11.676;2023-09-12T11:55:33;9.52;;;5.97;;
26936;SDS011;14495;48.116;11.676;2023-09-12T11:58:01;9.40;;;6.53;;
26936;SDS011;14495;48.116;11.676;2023-09-12T12:00:28;13.30;;;6.97;;
26936;SDS011;14495;48.116;11.676;2023-09-12T12:02:54;9.55;;;6.25;;
26936;SDS011;14495;48.116;11.676;2023-09-12T12:05:20;9.43;;;6.07;;
26936;SDS011;14495;48.116;11.676;2023-09-12T12:07:49;9.90;;;6.15;;
26936;SDS011;14495;48.116;11.676;2023-09-12T12:10:17;7.40;;;6.10;;
26936;SDS011;14495;48.116;11.676;2023-09-12T12:12:45;11.52;;;6.57;;
26936;SDS011;14495;48.116;11.676;2023-09-12T12:15:11;7.82;;;6.10;;
26936;SDS011;14495;48.116;11.676;2023-09-12T12:17:37;6.53;;;5.75;;
26936;SDS011;14495;48.116;11.676;2023-09-12T12:20:06;8.55;;;5.90;;
26936;SDS011;14495;48.116;11.676;2023-09-12T12:22:39;8.48;;;5.90;;
26936;SDS011;14495;48.116;11.676;2023-09-12T12:25:08;6.15;;;5.55;;
26936;SDS011;14495;48.116;11.676;2023-09-12T12:27:35;7.97;;;6.32;;
26936;SDS011;14495;48.116;11.676;2023-09-12T12:30:05;10.80;;;6.00;;
26936;SDS011;14495;48.116;11.676;2023-09-12T12:32:43;9.35;;;5.65;;
26936;SDS011;14495;48.116;11.676;2023-09-12T12:35:20;11.07;;;6.25;;
26936;SDS011;14495;48.116;11.676;2023-09-12T12:37:50;7.68;;;5.65;;
26936;SDS011;14495;48.116;11.676;2023-09-12T12:40:16;9.98;;;6.22;;
26936;SDS011;14495;48.116;11.676;2023-09-12T12:42:42;9.43;;;6.22;;
26936;SDS011;14495;48.116;11.676;2023-09-12T12:45:12;8.80;;;6.25;;
26936;SDS011;14495;48.116;11.676;2023-09-12T12:47:41;13.07;;;6.13;;
26936;SDS011;14495;48.116;11.676;2023-09-12T12:50:07;9.80;;;6.05;;
26936;SDS011;14495;48.116;11.676;2023-09-12T12:52:35;7.57;;;5.90;;
26936;SDS011;14495;48.116;11.676;2023-09-12T12:55:05;8.73;;;5.97;;
26936;SDS011;14495;48.116;11.676;2023-09-12T12:57:31;9.38;;;5.85;;
26936;SDS011;14495;48.116;11.676;2023-09-12T12:59:56;13.95;;;5.97;;
26936;SDS011;14495;48.116;11.676;2023-09-12T13:02:23;9.23;;;5.95;;
26936;SDS011;14495;48.116;11.676;2023-09-12T13:04:48;8.65;;;5.20;;
26936;SDS011;14495;48.116;11.676;2023-09-12T13:07:14;5.93;;;5.30;;
26936;SDS011;14495;48.116;11.676;2023-09-12T13:09:41;9.60;;;5.55;;
26936;SDS011;14495;48.116;11.676;2023-09-12T13:12:07;7.25;;;5.80;;
26936;SDS011;14495;48.116;11.676;2023-09-12T13:14:33;7.60;;;5.80;;
26936;SDS011;14495;48.116;11.676;2023-09-12T13:16:59;8.07;;;5.75;;
26936;SDS011;14495;48.116;11.676;2023-09-12T13:19:25;7.28;;;5.53;;
26936;SDS011;14495;48.116;11.676;2023-09-12T13:21:51;9.32;;;5.80;;
26936;SDS011;14495;48.116;11.676;2023-09-12T13:24:17;8.88;;;6.55;;
26936;SDS011;14495;48.116;11.676;2023-09-12T13:26:42;8.02;;;5.90;;
26936;SDS011;14495;48.116;11.676;2023-09-12T13:29:07;10.88;;;6.68;;
26936;SDS011;14495;48.116;11.676;2023-09-12T13:31:33;9.35;;;5.63;;
26936;SDS011;14495;48.116;11.676;2023-09-12T13:33:58;11.30;;;5.63;;
26936;SDS011;14495;48.116;11.676;2023-09-12T13:36:23;6.57;;;5.68;;
26936;SDS011;14495;48.116;11.676;2023-09-12T13:38:49;7.80;;;5.95;;
26936;SDS011;14495;48.116;11.676;2023-09-12T13:41:16;6.90;;;5.82;;
26936;SDS011;14495;48.116;11.676;2023-09-12T13:43:42;6.47;;;5.10;;
26936;SDS011;14495;48.116;11.676;2023-09-12T13:46:10;8.68;;;6.20;;
26936;SDS011;14495;48.116;11.676;2023-09-12T13:48:37;12.13;;;5.95;;
26936;SDS011;14495;48.116;11.676;2023-09-12T13:51:03;12.27;;;6.60;;
26936;SDS011;14495;48.116;11.676;2023-09-12T13:53:28;7.75;;;5.85;;
26936;SDS011;14495;48.116;11.676;2023-09-12T13:55:53;8.00;;;5.85;;
26936;SDS011;14495;48.116;11.676;2023-09-12T13:58:21;8.70;;;5.57;;
26936;SDS011;14495;48.116;11.676;2023-09-12T14:00:48;11.18;;;5.80;;
26936;SDS011;14495;48.116;11.676;2023-09-12T14:03:13;8.55;;;5.65;;
26936;SDS011;14495;48.116;11.676;2023-09-12T14:05:39;7.80;;;5.40;;
26936;SDS011;14495;48.116;11.676;2023-09-12T14:08:04;8.13;;;5.93;;
26936;SDS011;14495;48.116;11.676;2023-09-12T14:10:30;8.40;;;6.30;;
26936;SDS011;14495;48.116;11.676;2023-09-12T14:12:55;6.90;;;5.65;;
26936;SDS011;14495;48.116;11.676;2023-09-12T14:15:21;11.25;;;6.68;;
26936;SDS011;14495;48.116;11.676;2023-09-12T14:17:46;10.60;;;5.97;;
26936;SDS011;14495;48.116;11.676;2023-09-12T14:20:12;8.55;;;6.45;;
26936;SDS011;14495;48.116;11.676;2023-09-12T14:22:40;7.60;;;5.93;;
26936;SDS011;14495;48.116;11.676;2023-09-12T14:25:07;13.60;;;6.75;;
26936;SDS011;14495;48.116;11.676;2023-09-12T14:27:33;7.63;;;6.00;;
26936;SDS011;14495;48.116;11.676;2023-09-12T14:30:00;9.13;;;6.07;;
26936;SDS011;14495;48.116;11.676;2023-09-12T14:32:29;7.38;;;6.20;;
26936;SDS011;14495;48.116;11.676;2023-09-12T14:34:57;8.65;;;6.40;;
26936;SDS011;14495;48.116;11.676;2023-09-12T14:37:22;10.05;;;6.78;;
26936;SDS011;14495;48.116;11.676;2023-09-12T14:39:52;7.00;;;5.95;;
26936;SDS011;14495;48.116;11.676;2023-09-12T14:42:17;8.63;;;6.60;;
26936;SDS011;14495;48.116;11.676;2023-09-12T14:44:43;9.65;;;6.28;;
26936;SDS011;14495;48.116;11.676;2023-09-12T14:47:08;10.30;;;6.35;;